Startpagina
METAR-TAF:

METAR-TAF

Vliegvelden :

Luchthaven Sjeremetjevo

Moskou-Sjeremetjevo, Rusland

breedte: 55-58N, lengte: 037-25E, hoogte: 190 m

Actueel weer

Dit bericht is 36 minuten geleden gemaakt, om 21:30 UTC
Weinig wind
Temperatuur 13°C
Vochtigheid 88%
Druk 1023 hPa
Zicht 10 km of meer
geen wolken onder 1500 m en geen cumulonimbus

METAR: UUEE 182130Z 00000MPS CAVOK 13/11 Q1023 R06R/CLRD62 NOSIG

Tijdstip: 01:06 (22:06 UTC)

Verwachting

Dit bericht is 2 uur en het 13 minuten geleden gemaakt, om 19:53 UTC
Verwachting geldig van 18 om 21 UTC tot 19 om 21 UTC
Wind 2 kt uit variabele richting
Zicht 10 km of meer
geen wolken onder 1500 m en geen cumulonimbus
Wijzigt naar
van 19 om 06 UTC tot 19 om 08 UTC
Wind 10 kt uit het zuidzuidwesten

TAF: UUEE 181953Z 1821/1921 VRB01MPS CAVOK TX25/1912Z TN12/1902Z BECMG 1906/1908 20005MPS

Waarnemingen en weersverwachtingen van meer dan 4000 vliegvelden (METAR en TAF).

De beschikbare stations zijn de gele en rode punten op de kaart.

Ga met uw muis naar het station om de naam te zien.

Klik dan om waarnemingen en weersverwachtingen te zien.

kaart wijzigen: klik op de groene knoppen met een zwart kruis om in te zoomen, op de groene knop met een streepje om uit te zoomen of op de groene pijlen voor aangrenzende kaarten.


METAR-TAF: